sensor_id;sensor_type;location;lat;lon;timestamp;temperature;humidity
49793;DHT22;35690;37.536;-122.304;2022-08-19T00:01:54;26.90;44.10
49793;DHT22;35690;37.536;-122.304;2022-08-19T00:04:24;27.10;44.10
49793;DHT22;35690;37.536;-122.304;2022-08-19T00:06:51;28.30;41.90
49793;DHT22;35690;37.536;-122.304;2022-08-19T00:09:19;29.40;40.00
49793;DHT22;35690;37.536;-122.304;2022-08-19T00:11:46;30.20;39.00
49793;DHT22;35690;37.536;-122.304;2022-08-19T00:14:15;30.60;38.60
49793;DHT22;35690;37.536;-122.304;2022-08-19T00:16:43;30.80;37.90
49793;DHT22;35690;37.536;-122.304;2022-08-19T00:19:11;31.00;37.80
49793;DHT22;35690;37.536;-122.304;2022-08-19T00:21:37;31.00;38.00
49793;DHT22;35690;37.536;-122.304;2022-08-19T00:24:09;31.10;38.00
49793;DHT22;35690;37.536;-122.304;2022-08-19T00:26:37;31.20;38.00
49793;DHT22;35690;37.536;-122.304;2022-08-19T00:29:05;31.20;38.00
49793;DHT22;35690;37.536;-122.304;2022-08-19T00:31:32;31.20;38.00
49793;DHT22;35690;37.536;-122.304;2022-08-19T00:33:59;31.30;38.20
49793;DHT22;35690;37.536;-122.304;2022-08-19T00:36:26;31.30;38.20
49793;DHT22;35690;37.536;-122.304;2022-08-19T00:38:54;31.30;38.30
49793;DHT22;35690;37.536;-122.304;2022-08-19T00:41:21;31.20;38.30
49793;DHT22;35690;37.536;-122.304;2022-08-19T00:46:32;31.20;38.40
49793;DHT22;35690;37.536;-122.304;2022-08-19T00:49:04;31.30;38.50
49793;DHT22;35690;37.536;-122.304;2022-08-19T00:51:32;31.30;38.60
49793;DHT22;35690;37.536;-122.304;2022-08-19T00:54:00;31.30;38.60
49793;DHT22;35690;37.536;-122.304;2022-08-19T00:56:27;31.20;38.60
49793;DHT22;35690;37.536;-122.304;2022-08-19T00:58:55;31.20;38.60
49793;DHT22;35690;37.536;-122.304;2022-08-19T01:01:22;31.20;38.80
49793;DHT22;35690;37.536;-122.304;2022-08-19T01:03:49;31.10;38.90
49793;DHT22;35690;37.536;-122.304;2022-08-19T01:06:15;31.00;39.00
49793;DHT22;35690;37.536;-122.304;2022-08-19T01:08:42;31.00;39.10
49793;DHT22;35690;37.536;-122.304;2022-08-19T01:11:08;30.90;39.20
49793;DHT22;35690;37.536;-122.304;2022-08-19T01:13:36;30.90;39.40
49793;DHT22;35690;37.536;-122.304;2022-08-19T01:16:08;30.80;39.50
49793;DHT22;35690;37.536;-122.304;2022-08-19T01:18:39;30.70;39.60
49793;DHT22;35690;37.536;-122.304;2022-08-19T01:21:18;30.60;39.50
49793;DHT22;35690;37.536;-122.304;2022-08-19T01:23:46;30.60;39.90
49793;DHT22;35690;37.536;-122.304;2022-08-19T01:26:17;30.50;39.90
49793;DHT22;35690;37.536;-122.304;2022-08-19T01:28:46;30.50;39.90
49793;DHT22;35690;37.536;-122.304;2022-08-19T01:31:20;30.40;39.90
49793;DHT22;35690;37.536;-122.304;2022-08-19T01:33:48;30.40;39.90
49793;DHT22;35690;37.536;-122.304;2022-08-19T01:36:29;30.40;40.10
49793;DHT22;35690;37.536;-122.304;2022-08-19T01:38:56;30.30;40.20
49793;DHT22;35690;37.536;-122.304;2022-08-19T01:41:24;30.30;40.40
49793;DHT22;35690;37.536;-122.304;2022-08-19T01:43:52;30.20;40.40
49793;DHT22;35690;37.536;-122.304;2022-08-19T01:46:19;30.20;40.50
49793;DHT22;35690;37.536;-122.304;2022-08-19T01:48:46;30.10;40.80
49793;DHT22;35690;37.536;-122.304;2022-08-19T01:51:13;30.00;40.70
49793;DHT22;35690;37.536;-122.304;2022-08-19T01:53:41;30.00;40.70
49793;DHT22;35690;37.536;-122.304;2022-08-19T01:56:07;30.00;41.00
49793;DHT22;35690;37.536;-122.304;2022-08-19T01:58:38;29.90;41.00
49793;DHT22;35690;37.536;-122.304;2022-08-19T02:01:06;29.90;40.80
49793;DHT22;35690;37.536;-122.304;2022-08-19T02:03:33;29.90;41.00
49793;DHT22;35690;37.536;-122.304;2022-08-19T02:06:03;29.90;40.90
49793;DHT22;35690;37.536;-122.304;2022-08-19T02:08:32;29.80;41.10
49793;DHT22;35690;37.536;-122.304;2022-08-19T02:10:59;29.70;41.30
49793;DHT22;35690;37.536;-122.304;2022-08-19T02:13:26;29.70;41.20
49793;DHT22;35690;37.536;-122.304;2022-08-19T02:15:52;29.60;41.30
49793;DHT22;35690;37.536;-122.304;2022-08-19T02:18:19;29.60;41.20
49793;DHT22;35690;37.536;-122.304;2022-08-19T02:20:45;29.50;41.20
49793;DHT22;35690;37.536;-122.304;2022-08-19T02:23:14;29.50;41.30
49793;DHT22;35690;37.536;-122.304;2022-08-19T02:25:45;29.30;41.20
49793;DHT22;35690;37.536;-122.304;2022-08-19T02:28:12;29.30;41.20
49793;DHT22;35690;37.536;-122.304;2022-08-19T02:30:40;29.20;41.40
49793;DHT22;35690;37.536;-122.304;2022-08-19T02:33:07;29.20;41.20
49793;DHT22;35690;37.536;-122.304;2022-08-19T02:35:33;29.10;41.30
49793;DHT22;35690;37.536;-122.304;2022-08-19T02:38:00;29.10;41.60
49793;DHT22;35690;37.536;-122.304;2022-08-19T02:40:59;29.00;41.30
49793;DHT22;35690;37.536;-122.304;2022-08-19T02:43:26;28.90;41.60
49793;DHT22;35690;37.536;-122.304;2022-08-19T02:45:53;28.80;41.40
49793;DHT22;35690;37.536;-122.304;2022-08-19T02:48:22;28.80;41.30
49793;DHT22;35690;37.536;-122.304;2022-08-19T02:50:50;28.70;41.70
49793;DHT22;35690;37.536;-122.304;2022-08-19T02:53:26;28.60;41.60
49793;DHT22;35690;37.536;-122.304;2022-08-19T02:55:52;28.60;42.00
49793;DHT22;35690;37.536;-122.304;2022-08-19T02:58:20;28.50;42.00
49793;DHT22;35690;37.536;-122.304;2022-08-19T03:00:50;28.50;42.00
49793;DHT22;35690;37.536;-122.304;2022-08-19T03:03:17;28.30;42.10
49793;DHT22;35690;37.536;-122.304;2022-08-19T03:05:44;28.30;42.10
49793;DHT22;35690;37.536;-122.304;2022-08-19T03:08:11;28.20;42.00
49793;DHT22;35690;37.536;-122.304;2022-08-19T03:10:46;28.20;42.10
49793;DHT22;35690;37.536;-122.304;2022-08-19T03:13:33;28.10;42.20
49793;DHT22;35690;37.536;-122.304;2022-08-19T03:15:59;28.10;42.30
49793;DHT22;35690;37.536;-122.304;2022-08-19T03:18:25;28.10;42.20
49793;DHT22;35690;37.536;-122.304;2022-08-19T03:20:53;28.00;42.50
49793;DHT22;35690;37.536;-122.304;2022-08-19T03:23:20;28.10;42.60
49793;DHT22;35690;37.536;-122.304;2022-08-19T03:25:48;28.00;42.40
49793;DHT22;35690;37.536;-122.304;2022-08-19T03:28:15;28.10;42.40
49793;DHT22;35690;37.536;-122.304;2022-08-19T03:30:53;27.80;42.60
49793;DHT22;35690;37.536;-122.304;2022-08-19T03:33:22;28.00;42.50
49793;DHT22;35690;37.536;-122.304;2022-08-19T03:36:03;27.70;42.70
49793;DHT22;35690;37.536;-122.304;2022-08-19T03:38:31;27.60;42.80
49793;DHT22;35690;37.536;-122.304;2022-08-19T03:41:02;27.60;42.80
49793;DHT22;35690;37.536;-122.304;2022-08-19T03:43:28;27.50;43.10
49793;DHT22;35690;37.536;-122.304;2022-08-19T03:46:03;27.40;43.10
49793;DHT22;35690;37.536;-122.304;2022-08-19T03:48:31;27.30;43.20
49793;DHT22;35690;37.536;-122.304;2022-08-19T03:50:58;27.30;43.30
49793;DHT22;35690;37.536;-122.304;2022-08-19T03:53:27;27.30;43.30
49793;DHT22;35690;37.536;-122.304;2022-08-19T03:55:54;27.20;43.30
49793;DHT22;35690;37.536;-122.304;2022-08-19T03:58:22;27.30;43.20
49793;DHT22;35690;37.536;-122.304;2022-08-19T04:00:48;27.20;43.50
49793;DHT22;35690;37.536;-122.304;2022-08-19T04:03:15;27.10;43.50
49793;DHT22;35690;37.536;-122.304;2022-08-19T04:05:45;27.00;43.60
49793;DHT22;35690;37.536;-122.304;2022-08-19T04:08:13;27.00;43.90
49793;DHT22;35690;37.536;-122.304;2022-08-19T04:10:44;26.90;43.70
49793;DHT22;35690;37.536;-122.304;2022-08-19T04:13:11;26.90;43.70
49793;DHT22;35690;37.536;-122.304;2022-08-19T04:15:42;26.80;43.60
49793;DHT22;35690;37.536;-122.304;2022-08-19T04:18:09;26.80;44.00
49793;DHT22;35690;37.536;-122.304;2022-08-19T04:20:44;26.70;44.20
49793;DHT22;35690;37.536;-122.304;2022-08-19T04:23:11;26.70;44.10
49793;DHT22;35690;37.536;-122.304;2022-08-19T04:25:43;26.60;44.10
49793;DHT22;35690;37.536;-122.304;2022-08-19T04:28:12;26.50;44.30
49793;DHT22;35690;37.536;-122.304;2022-08-19T04:30:44;26.50;44.30
49793;DHT22;35690;37.536;-122.304;2022-08-19T04:33:12;26.50;44.40
49793;DHT22;35690;37.536;-122.304;2022-08-19T04:35:41;26.40;44.50
49793;DHT22;35690;37.536;-122.304;2022-08-19T04:38:09;26.40;45.10
49793;DHT22;35690;37.536;-122.304;2022-08-19T04:40:47;26.30;44.70
49793;DHT22;35690;37.536;-122.304;2022-08-19T04:43:33;26.30;44.70
49793;DHT22;35690;37.536;-122.304;2022-08-19T04:46:11;26.30;44.70
49793;DHT22;35690;37.536;-122.304;2022-08-19T04:48:39;26.20;44.90
49793;DHT22;35690;37.536;-122.304;2022-08-19T04:51:11;26.00;45.10
49793;DHT22;35690;37.536;-122.304;2022-08-19T04:53:40;26.00;45.30
49793;DHT22;35690;37.536;-122.304;2022-08-19T04:56:10;26.10;45.10
49793;DHT22;35690;37.536;-122.304;2022-08-19T04:58:39;25.90;45.30
49793;DHT22;35690;37.536;-122.304;2022-08-19T05:01:11;26.00;45.50
49793;DHT22;35690;37.536;-122.304;2022-08-19T05:03:38;25.80;45.30
49793;DHT22;35690;37.536;-122.304;2022-08-19T05:06:12;25.90;45.50
49793;DHT22;35690;37.536;-122.304;2022-08-19T05:08:41;25.80;45.40
49793;DHT22;35690;37.536;-122.304;2022-08-19T05:11:25;25.90;45.50
49793;DHT22;35690;37.536;-122.304;2022-08-19T05:13:52;25.60;45.80
49793;DHT22;35690;37.536;-122.304;2022-08-19T05:16:20;25.50;46.10
49793;DHT22;35690;37.536;-122.304;2022-08-19T05:18:48;25.50;46.30
49793;DHT22;35690;37.536;-122.304;2022-08-19T05:21:34;25.60;46.30
49793;DHT22;35690;37.536;-122.304;2022-08-19T05:24:21;25.60;46.20
49793;DHT22;35690;37.536;-122.304;2022-08-19T05:26:50;25.50;46.20
49793;DHT22;35690;37.536;-122.304;2022-08-19T05:29:19;25.50;46.30
49793;DHT22;35690;37.536;-122.304;2022-08-19T05:31:48;25.60;46.20
49793;DHT22;35690;37.536;-122.304;2022-08-19T05:34:18;25.40;46.40
49793;DHT22;35690;37.536;-122.304;2022-08-19T05:36:55;25.50;46.40
49793;DHT22;35690;37.536;-122.304;2022-08-19T05:39:26;25.40;46.70
49793;DHT22;35690;37.536;-122.304;2022-08-19T05:42:00;25.40;46.60
49793;DHT22;35690;37.536;-122.304;2022-08-19T05:44:28;25.20;46.80
49793;DHT22;35690;37.536;-122.304;2022-08-19T05:46:58;25.20;46.90
49793;DHT22;35690;37.536;-122.304;2022-08-19T05:49:26;25.20;46.90
49793;DHT22;35690;37.536;-122.304;2022-08-19T05:51:53;25.30;46.90
49793;DHT22;35690;37.536;-122.304;2022-08-19T05:54:22;25.10;47.00
49793;DHT22;35690;37.536;-122.304;2022-08-19T05:56:52;25.00;47.30
49793;DHT22;35690;37.536;-122.304;2022-08-19T05:59:20;25.00;47.20
49793;DHT22;35690;37.536;-122.304;2022-08-19T06:01:49;25.00;47.20
49793;DHT22;35690;37.536;-122.304;2022-08-19T06:04:40;25.00;47.20
49793;DHT22;35690;37.536;-122.304;2022-08-19T06:07:08;25.00;47.80
49793;DHT22;35690;37.536;-122.304;2022-08-19T06:09:35;24.90;47.40
49793;DHT22;35690;37.536;-122.304;2022-08-19T06:12:03;24.90;47.30
49793;DHT22;35690;37.536;-122.304;2022-08-19T06:14:32;24.80;47.60
49793;DHT22;35690;37.536;-122.304;2022-08-19T06:17:00;24.90;47.60
49793;DHT22;35690;37.536;-122.304;2022-08-19T06:19:29;24.80;47.60
49793;DHT22;35690;37.536;-122.304;2022-08-19T06:21:57;24.80;47.60
49793;DHT22;35690;37.536;-122.304;2022-08-19T06:24:25;24.90;47.60
49793;DHT22;35690;37.536;-122.304;2022-08-19T06:26:54;24.80;47.60
49793;DHT22;35690;37.536;-122.304;2022-08-19T06:29:24;24.90;47.60
49793;DHT22;35690;37.536;-122.304;2022-08-19T06:31:53;24.80;47.70
49793;DHT22;35690;37.536;-122.304;2022-08-19T06:34:20;24.70;47.80
49793;DHT22;35690;37.536;-122.304;2022-08-19T06:36:51;24.70;47.80
49793;DHT22;35690;37.536;-122.304;2022-08-19T06:39:21;24.60;47.90
49793;DHT22;35690;37.536;-122.304;2022-08-19T06:41:50;24.70;47.60
49793;DHT22;35690;37.536;-122.304;2022-08-19T06:44:18;24.70;47.80
49793;DHT22;35690;37.536;-122.304;2022-08-19T06:46:46;24.70;48.20
49793;DHT22;35690;37.536;-122.304;2022-08-19T06:49:15;24.60;48.10
49793;DHT22;35690;37.536;-122.304;2022-08-19T06:51:43;24.60;48.10
49793;DHT22;35690;37.536;-122.304;2022-08-19T06:54:10;24.60;48.00
49793;DHT22;35690;37.536;-122.304;2022-08-19T06:56:37;24.70;48.00
49793;DHT22;35690;37.536;-122.304;2022-08-19T06:59:06;24.40;48.20
49793;DHT22;35690;37.536;-122.304;2022-08-19T07:01:39;24.50;48.20
49793;DHT22;35690;37.536;-122.304;2022-08-19T07:04:07;24.60;48.40
49793;DHT22;35690;37.536;-122.304;2022-08-19T07:06:35;24.50;48.30
49793;DHT22;35690;37.536;-122.304;2022-08-19T07:09:03;24.50;48.50
49793;DHT22;35690;37.536;-122.304;2022-08-19T07:11:29;24.50;48.50
49793;DHT22;35690;37.536;-122.304;2022-08-19T07:13:56;24.40;49.00
49793;DHT22;35690;37.536;-122.304;2022-08-19T07:16:23;24.40;48.50
49793;DHT22;35690;37.536;-122.304;2022-08-19T07:18:50;24.40;48.50
49793;DHT22;35690;37.536;-122.304;2022-08-19T07:21:24;24.30;48.50
49793;DHT22;35690;37.536;-122.304;2022-08-19T07:23:56;24.40;48.60
49793;DHT22;35690;37.536;-122.304;2022-08-19T07:26:28;24.40;48.50
49793;DHT22;35690;37.536;-122.304;2022-08-19T07:28:56;24.30;48.60
49793;DHT22;35690;37.536;-122.304;2022-08-19T07:31:25;24.30;48.70
49793;DHT22;35690;37.536;-122.304;2022-08-19T07:33:53;24.30;48.80
49793;DHT22;35690;37.536;-122.304;2022-08-19T07:36:26;24.20;48.80
49793;DHT22;35690;37.536;-122.304;2022-08-19T07:38:59;24.20;48.80
49793;DHT22;35690;37.536;-122.304;2022-08-19T07:41:28;24.20;48.90
49793;DHT22;35690;37.536;-122.304;2022-08-19T07:44:00;24.20;49.00
49793;DHT22;35690;37.536;-122.304;2022-08-19T07:46:34;24.20;48.80
49793;DHT22;35690;37.536;-122.304;2022-08-19T07:49:02;24.30;48.80
49793;DHT22;35690;37.536;-122.304;2022-08-19T07:51:29;24.20;49.00
49793;DHT22;35690;37.536;-122.304;2022-08-19T07:53:55;24.10;49.20
49793;DHT22;35690;37.536;-122.304;2022-08-19T07:56:23;24.00;49.30
49793;DHT22;35690;37.536;-122.304;2022-08-19T07:58:51;24.10;49.00
49793;DHT22;35690;37.536;-122.304;2022-08-19T08:01:21;24.10;49.10
49793;DHT22;35690;37.536;-122.304;2022-08-19T08:03:49;23.90;49.20
49793;DHT22;35690;37.536;-122.304;2022-08-19T08:06:35;24.10;49.30
49793;DHT22;35690;37.536;-122.304;2022-08-19T08:09:24;24.00;49.10
49793;DHT22;35690;37.536;-122.304;2022-08-19T08:11:57;24.00;49.30
49793;DHT22;35690;37.536;-122.304;2022-08-19T08:14:35;24.00;49.50
49793;DHT22;35690;37.536;-122.304;2022-08-19T08:17:03;23.90;49.70
49793;DHT22;35690;37.536;-122.304;2022-08-19T08:19:30;23.90;49.60
49793;DHT22;35690;37.536;-122.304;2022-08-19T08:21:58;23.90;49.60
49793;DHT22;35690;37.536;-122.304;2022-08-19T08:24:27;23.90;49.70
49793;DHT22;35690;37.536;-122.304;2022-08-19T08:26:54;23.70;49.70
49793;DHT22;35690;37.536;-122.304;2022-08-19T08:29:21;23.80;49.70
49793;DHT22;35690;37.536;-122.304;2022-08-19T08:31:48;23.80;49.60
49793;DHT22;35690;37.536;-122.304;2022-08-19T08:34:14;23.90;49.60
49793;DHT22;35690;37.536;-122.304;2022-08-19T08:36:44;23.80;49.60
49793;DHT22;35690;37.536;-122.304;2022-08-19T08:39:15;23.90;49.60
49793;DHT22;35690;37.536;-122.304;2022-08-19T08:42:10;23.80;49.90
49793;DHT22;35690;37.536;-122.304;2022-08-19T08:44:48;23.70;49.90
49793;DHT22;35690;37.536;-122.304;2022-08-19T08:47:19;23.60;50.00
49793;DHT22;35690;37.536;-122.304;2022-08-19T08:52:24;23.60;50.20
49793;DHT22;35690;37.536;-122.304;2022-08-19T08:54:53;23.70;50.10
49793;DHT22;35690;37.536;-122.304;2022-08-19T09:00:10;23.60;50.30
49793;DHT22;35690;37.536;-122.304;2022-08-19T09:02:38;23.50;50.30
49793;DHT22;35690;37.536;-122.304;2022-08-19T09:05:05;23.50;50.40
49793;DHT22;35690;37.536;-122.304;2022-08-19T09:07:39;23.50;50.40
49793;DHT22;35690;37.536;-122.304;2022-08-19T09:15:45;23.40;50.50
49793;DHT22;35690;37.536;-122.304;2022-08-19T09:18:14;23.40;50.50
49793;DHT22;35690;37.536;-122.304;2022-08-19T09:20:42;23.50;50.40
49793;DHT22;35690;37.536;-122.304;2022-08-19T09:23:09;23.40;50.50
49793;DHT22;35690;37.536;-122.304;2022-08-19T09:25:36;23.50;50.30
49793;DHT22;35690;37.536;-122.304;2022-08-19T09:28:03;23.50;50.30
49793;DHT22;35690;37.536;-122.304;2022-08-19T09:30:33;23.40;50.50
49793;DHT22;35690;37.536;-122.304;2022-08-19T09:33:00;23.30;50.60
49793;DHT22;35690;37.536;-122.304;2022-08-19T09:35:28;23.30;50.70
49793;DHT22;35690;37.536;-122.304;2022-08-19T09:37:55;23.30;50.90
49793;DHT22;35690;37.536;-122.304;2022-08-19T09:40:23;23.20;51.00
49793;DHT22;35690;37.536;-122.304;2022-08-19T09:42:50;23.30;50.60
49793;DHT22;35690;37.536;-122.304;2022-08-19T09:45:19;23.30;50.70
49793;DHT22;35690;37.536;-122.304;2022-08-19T09:47:50;23.30;50.60
49793;DHT22;35690;37.536;-122.304;2022-08-19T09:50:18;23.20;50.80
49793;DHT22;35690;37.536;-122.304;2022-08-19T09:52:46;23.20;51.10
49793;DHT22;35690;37.536;-122.304;2022-08-19T09:55:12;23.10;51.10
49793;DHT22;35690;37.536;-122.304;2022-08-19T09:57:39;23.20;51.00
49793;DHT22;35690;37.536;-122.304;2022-08-19T10:00:07;23.10;51.00
49793;DHT22;35690;37.536;-122.304;2022-08-19T10:02:35;23.10;51.00
49793;DHT22;35690;37.536;-122.304;2022-08-19T10:05:01;23.10;51.00
49793;DHT22;35690;37.536;-122.304;2022-08-19T10:07:46;23.10;51.10
49793;DHT22;35690;37.536;-122.304;2022-08-19T10:10:13;23.10;50.90
49793;DHT22;35690;37.536;-122.304;2022-08-19T10:12:39;23.00;51.00
49793;DHT22;35690;37.536;-122.304;2022-08-19T10:15:06;23.00;51.00
49793;DHT22;35690;37.536;-122.304;2022-08-19T10:17:33;23.00;51.00
49793;DHT22;35690;37.536;-122.304;2022-08-19T10:20:01;23.00;51.20
49793;DHT22;35690;37.536;-122.304;2022-08-19T10:22:30;23.00;51.10
49793;DHT22;35690;37.536;-122.304;2022-08-19T10:24:56;23.00;51.10
49793;DHT22;35690;37.536;-122.304;2022-08-19T10:27:23;22.90;51.30
49793;DHT22;35690;37.536;-122.304;2022-08-19T10:29:49;22.90;51.20
49793;DHT22;35690;37.536;-122.304;2022-08-19T10:32:16;22.90;51.30
49793;DHT22;35690;37.536;-122.304;2022-08-19T10:34:42;22.90;51.20
49793;DHT22;35690;37.536;-122.304;2022-08-19T10:37:09;22.90;51.30
49793;DHT22;35690;37.536;-122.304;2022-08-19T10:39:36;22.80;51.30
49793;DHT22;35690;37.536;-122.304;2022-08-19T10:42:06;22.80;51.40
49793;DHT22;35690;37.536;-122.304;2022-08-19T10:44:33;22.90;51.30
49793;DHT22;35690;37.536;-122.304;2022-08-19T10:47:02;22.90;51.30
49793;DHT22;35690;37.536;-122.304;2022-08-19T10:49:29;22.80;51.40
49793;DHT22;35690;37.536;-122.304;2022-08-19T10:51:56;22.70;51.60
49793;DHT22;35690;37.536;-122.304;2022-08-19T10:54:41;22.80;51.60
49793;DHT22;35690;37.536;-122.304;2022-08-19T10:57:29;22.70;51.70
49793;DHT22;35690;37.536;-122.304;2022-08-19T10:59:56;22.70;51.70
49793;DHT22;35690;37.536;-122.304;2022-08-19T11:02:23;22.60;51.50
49793;DHT22;35690;37.536;-122.304;2022-08-19T11:04:49;22.70;51.80
49793;DHT22;35690;37.536;-122.304;2022-08-19T11:07:17;22.70;51.70
49793;DHT22;35690;37.536;-122.304;2022-08-19T11:09:44;22.60;51.60
49793;DHT22;35690;37.536;-122.304;2022-08-19T11:12:12;22.60;51.60
49793;DHT22;35690;37.536;-122.304;2022-08-19T11:14:39;22.60;51.70
49793;DHT22;35690;37.536;-122.304;2022-08-19T11:17:06;22.50;52.00
49793;DHT22;35690;37.536;-122.304;2022-08-19T11:19:33;22.60;51.90
49793;DHT22;35690;37.536;-122.304;2022-08-19T11:22:00;22.60;51.80
49793;DHT22;35690;37.536;-122.304;2022-08-19T11:24:29;22.60;51.80
49793;DHT22;35690;37.536;-122.304;2022-08-19T11:27:05;22.70;51.70
49793;DHT22;35690;37.536;-122.304;2022-08-19T11:29:33;22.70;51.50
49793;DHT22;35690;37.536;-122.304;2022-08-19T11:32:04;22.60;51.60
49793;DHT22;35690;37.536;-122.304;2022-08-19T11:34:31;22.60;51.90
49793;DHT22;35690;37.536;-122.304;2022-08-19T11:36:58;22.50;51.70
49793;DHT22;35690;37.536;-122.304;2022-08-19T11:39:27;22.50;51.60
49793;DHT22;35690;37.536;-122.304;2022-08-19T11:41:54;22.50;51.70
49793;DHT22;35690;37.536;-122.304;2022-08-19T11:44:21;22.50;52.00
49793;DHT22;35690;37.536;-122.304;2022-08-19T11:47:07;22.50;51.90
49793;DHT22;35690;37.536;-122.304;2022-08-19T11:49:34;22.50;51.70
49793;DHT22;35690;37.536;-122.304;2022-08-19T11:52:02;22.50;51.80
49793;DHT22;35690;37.536;-122.304;2022-08-19T11:54:28;22.50;51.80
49793;DHT22;35690;37.536;-122.304;2022-08-19T11:56:55;22.50;52.10
49793;DHT22;35690;37.536;-122.304;2022-08-19T11:59:21;22.40;52.10
49793;DHT22;35690;37.536;-122.304;2022-08-19T12:01:47;22.40;51.90
49793;DHT22;35690;37.536;-122.304;2022-08-19T12:04:14;22.50;52.00
49793;DHT22;35690;37.536;-122.304;2022-08-19T12:06:40;22.40;52.10
49793;DHT22;35690;37.536;-122.304;2022-08-19T12:09:09;22.40;52.10
49793;DHT22;35690;37.536;-122.304;2022-08-19T12:11:36;22.30;52.00
49793;DHT22;35690;37.536;-122.304;2022-08-19T12:14:03;22.40;52.10
49793;DHT22;35690;37.536;-122.304;2022-08-19T12:16:30;22.40;52.20
49793;DHT22;35690;37.536;-122.304;2022-08-19T12:18:58;22.30;52.30
49793;DHT22;35690;37.536;-122.304;2022-08-19T12:21:29;22.40;52.30
49793;DHT22;35690;37.536;-122.304;2022-08-19T12:23:58;22.30;52.40
49793;DHT22;35690;37.536;-122.304;2022-08-19T12:26:27;22.20;52.50
49793;DHT22;35690;37.536;-122.304;2022-08-19T12:28:54;22.40;52.30
49793;DHT22;35690;37.536;-122.304;2022-08-19T12:31:20;22.30;52.30
49793;DHT22;35690;37.536;-122.304;2022-08-19T12:33:47;22.20;52.30
49793;DHT22;35690;37.536;-122.304;2022-08-19T12:36:16;22.30;52.40
49793;DHT22;35690;37.536;-122.304;2022-08-19T12:38:43;22.20;52.40
49793;DHT22;35690;37.536;-122.304;2022-08-19T12:41:13;22.20;52.40
49793;DHT22;35690;37.536;-122.304;2022-08-19T12:43:39;22.20;52.30
49793;DHT22;35690;37.536;-122.304;2022-08-19T12:46:07;22.20;52.40
49793;DHT22;35690;37.536;-122.304;2022-08-19T12:48:34;22.20;52.40
49793;DHT22;35690;37.536;-122.304;2022-08-19T12:51:06;22.20;52.40
49793;DHT22;35690;37.536;-122.304;2022-08-19T12:53:33;22.00;52.70
49793;DHT22;35690;37.536;-122.304;2022-08-19T12:55:59;22.00;52.80
49793;DHT22;35690;37.536;-122.304;2022-08-19T12:58:26;22.00;52.70
49793;DHT22;35690;37.536;-122.304;2022-08-19T13:00:53;22.10;52.50
49793;DHT22;35690;37.536;-122.304;2022-08-19T13:03:19;22.20;52.50
49793;DHT22;35690;37.536;-122.304;2022-08-19T13:05:46;22.10;52.40
49793;DHT22;35690;37.536;-122.304;2022-08-19T13:08:12;22.10;52.30
49793;DHT22;35690;37.536;-122.304;2022-08-19T13:10:57;22.10;52.50
49793;DHT22;35690;37.536;-122.304;2022-08-19T13:13:24;22.00;52.60
49793;DHT22;35690;37.536;-122.304;2022-08-19T13:15:51;22.10;52.60
49793;DHT22;35690;37.536;-122.304;2022-08-19T13:18:18;22.00;52.60
49793;DHT22;35690;37.536;-122.304;2022-08-19T13:20:45;22.00;52.60
49793;DHT22;35690;37.536;-122.304;2022-08-19T13:23:11;22.10;52.60
49793;DHT22;35690;37.536;-122.304;2022-08-19T13:25:38;22.00;53.20
49793;DHT22;35690;37.536;-122.304;2022-08-19T13:28:04;22.10;52.70
49793;DHT22;35690;37.536;-122.304;2022-08-19T13:30:32;22.10;52.40
49793;DHT22;35690;37.536;-122.304;2022-08-19T13:33:17;22.00;52.80
49793;DHT22;35690;37.536;-122.304;2022-08-19T13:36:06;22.00;52.80
49793;DHT22;35690;37.536;-122.304;2022-08-19T13:38:33;21.90;52.80
49793;DHT22;35690;37.536;-122.304;2022-08-19T13:41:04;21.90;52.90
49793;DHT22;35690;37.536;-122.304;2022-08-19T13:43:31;21.90;52.90
49793;DHT22;35690;37.536;-122.304;2022-08-19T13:45:57;21.90;52.70
49793;DHT22;35690;37.536;-122.304;2022-08-19T13:48:25;21.90;52.80
49793;DHT22;35690;37.536;-122.304;2022-08-19T13:50:52;21.90;52.80
49793;DHT22;35690;37.536;-122.304;2022-08-19T13:53:19;22.00;52.80
49793;DHT22;35690;37.536;-122.304;2022-08-19T13:55:46;21.90;52.60
49793;DHT22;35690;37.536;-122.304;2022-08-19T13:58:13;21.90;52.70
49793;DHT22;35690;37.536;-122.304;2022-08-19T14:00:42;21.90;52.90
49793;DHT22;35690;37.536;-122.304;2022-08-19T14:03:09;21.90;53.00
49793;DHT22;35690;37.536;-122.304;2022-08-19T14:05:37;21.90;52.80
49793;DHT22;35690;37.536;-122.304;2022-08-19T14:08:04;21.90;52.80
49793;DHT22;35690;37.536;-122.304;2022-08-19T14:10:30;21.90;52.60
49793;DHT22;35690;37.536;-122.304;2022-08-19T14:13:00;21.90;52.80
49793;DHT22;35690;37.536;-122.304;2022-08-19T14:15:28;21.80;53.10
49793;DHT22;35690;37.536;-122.304;2022-08-19T14:17:54;21.80;53.10
49793;DHT22;35690;37.536;-122.304;2022-08-19T14:20:21;21.90;53.10
49793;DHT22;35690;37.536;-122.304;2022-08-19T14:22:48;21.80;53.00
49793;DHT22;35690;37.536;-122.304;2022-08-19T14:25:19;21.80;53.10
49793;DHT22;35690;37.536;-122.304;2022-08-19T14:27:47;21.80;53.00
49793;DHT22;35690;37.536;-122.304;2022-08-19T14:30:17;21.80;52.90
49793;DHT22;35690;37.536;-122.304;2022-08-19T14:32:44;21.80;52.90
49793;DHT22;35690;37.536;-122.304;2022-08-19T14:35:12;21.80;52.90
49793;DHT22;35690;37.536;-122.304;2022-08-19T14:37:41;21.90;53.00
49793;DHT22;35690;37.536;-122.304;2022-08-19T14:40:08;21.80;53.10
49793;DHT22;35690;37.536;-122.304;2022-08-19T14:42:35;21.80;53.00
49793;DHT22;35690;37.536;-122.304;2022-08-19T14:45:02;21.80;53.20
49793;DHT22;35690;37.536;-122.304;2022-08-19T14:47:30;21.90;52.80
49793;DHT22;35690;37.536;-122.304;2022-08-19T14:49:57;21.90;52.90
49793;DHT22;35690;37.536;-122.304;2022-08-19T14:52:23;21.90;52.80
49793;DHT22;35690;37.536;-122.304;2022-08-19T14:54:50;21.70;53.00
49793;DHT22;35690;37.536;-122.304;2022-08-19T14:57:17;21.90;52.90
49793;DHT22;35690;37.536;-122.304;2022-08-19T14:59:43;21.90;53.00
49793;DHT22;35690;37.536;-122.304;2022-08-19T15:02:11;21.90;52.90
49793;DHT22;35690;37.536;-122.304;2022-08-19T15:04:37;21.80;52.70
49793;DHT22;35690;37.536;-122.304;2022-08-19T15:07:04;21.90;52.70
49793;DHT22;35690;37.536;-122.304;2022-08-19T15:09:32;21.80;52.80
49793;DHT22;35690;37.536;-122.304;2022-08-19T15:11:59;21.70;53.10
49793;DHT22;35690;37.536;-122.304;2022-08-19T15:14:28;21.80;53.10